Terminal Aerodrome Forecast
Issued by NWS Sioux Falls, SD

Home | Current Version | Previous Version | Text Only | Print | Product List | Glossary Off
Versions: 1 2 3 4 5 6 7 8 9 10 11 12 13 14 15 16 17 18 19 20 21 22 23

000
FTUS43 KFSD 270520
TAFSUX
TAF
KSUX 270520Z 2706/2806 01012G18KT 2SM -SN BR OVC012
      TEMPO 2706/2709 1/2SM SN VV006
     FM270900 35013G22KT 4SM -SN OVC012
     FM271300 33011KT P6SM BKN015 OVC030
     FM271700 31010KT P6SM SCT015 SCT100
     FM272100 25005KT P6SM SCT025 SCT050
     FM280100 17004KT P6SM FEW200=

USA.gov is the U.S. government's official web portal to all federal, state and local government web resources and services.